sensor_id;sensor_type;location;lat;lon;timestamp;P1;durP1;ratioP1;P2;durP2;ratioP2
21987;SDS011;11158;53.404;-1.510;2022-12-07T00:03:43;4.97;;;1.70;;
21987;SDS011;11158;53.404;-1.510;2022-12-07T00:06:10;5.13;;;1.55;;
21987;SDS011;11158;53.404;-1.510;2022-12-07T00:08:38;3.70;;;1.50;;
21987;SDS011;11158;53.404;-1.510;2022-12-07T00:11:04;6.35;;;1.95;;
21987;SDS011;11158;53.404;-1.510;2022-12-07T00:13:31;8.00;;;1.63;;
21987;SDS011;11158;53.404;-1.510;2022-12-07T00:16:06;5.90;;;1.63;;
21987;SDS011;11158;53.404;-1.510;2022-12-07T00:18:37;7.63;;;2.00;;
21987;SDS011;11158;53.404;-1.510;2022-12-07T00:21:04;4.32;;;2.33;;
21987;SDS011;11158;53.404;-1.510;2022-12-07T00:23:32;5.85;;;2.08;;
21987;SDS011;11158;53.404;-1.510;2022-12-07T00:26:09;5.47;;;1.33;;
21987;SDS011;11158;53.404;-1.510;2022-12-07T00:28:36;8.23;;;2.35;;
21987;SDS011;11158;53.404;-1.510;2022-12-07T00:31:03;9.77;;;1.63;;
21987;SDS011;11158;53.404;-1.510;2022-12-07T00:33:32;4.07;;;1.40;;
21987;SDS011;11158;53.404;-1.510;2022-12-07T00:35:59;8.00;;;1.63;;
21987;SDS011;11158;53.404;-1.510;2022-12-07T00:38:26;4.63;;;1.50;;
21987;SDS011;11158;53.404;-1.510;2022-12-07T00:40:57;4.50;;;1.58;;
21987;SDS011;11158;53.404;-1.510;2022-12-07T00:43:26;5.25;;;1.40;;
21987;SDS011;11158;53.404;-1.510;2022-12-07T00:45:52;7.40;;;1.73;;
21987;SDS011;11158;53.404;-1.510;2022-12-07T00:48:20;9.77;;;1.70;;
21987;SDS011;11158;53.404;-1.510;2022-12-07T00:50:47;4.82;;;1.48;;
21987;SDS011;11158;53.404;-1.510;2022-12-07T00:53:14;4.50;;;1.70;;
21987;SDS011;11158;53.404;-1.510;2022-12-07T00:55:40;5.60;;;1.48;;
21987;SDS011;11158;53.404;-1.510;2022-12-07T00:58:06;8.25;;;1.70;;
21987;SDS011;11158;53.404;-1.510;2022-12-07T01:00:32;4.82;;;1.38;;
21987;SDS011;11158;53.404;-1.510;2022-12-07T01:02:59;5.32;;;1.83;;
21987;SDS011;11158;53.404;-1.510;2022-12-07T01:05:26;6.32;;;1.23;;
21987;SDS011;11158;53.404;-1.510;2022-12-07T01:07:51;6.13;;;1.27;;
21987;SDS011;11158;53.404;-1.510;2022-12-07T01:10:17;9.60;;;1.55;;
21987;SDS011;11158;53.404;-1.510;2022-12-07T01:12:43;8.00;;;2.00;;
21987;SDS011;11158;53.404;-1.510;2022-12-07T01:15:12;6.55;;;1.70;;
21987;SDS011;11158;53.404;-1.510;2022-12-07T01:17:38;5.88;;;1.38;;
21987;SDS011;11158;53.404;-1.510;2022-12-07T01:20:03;6.90;;;1.67;;
21987;SDS011;11158;53.404;-1.510;2022-12-07T01:22:30;9.65;;;2.00;;
21987;SDS011;11158;53.404;-1.510;2022-12-07T01:24:56;3.20;;;1.20;;
21987;SDS011;11158;53.404;-1.510;2022-12-07T01:27:21;4.43;;;1.50;;
21987;SDS011;11158;53.404;-1.510;2022-12-07T01:29:48;5.57;;;1.70;;
21987;SDS011;11158;53.404;-1.510;2022-12-07T01:32:13;5.50;;;1.42;;
21987;SDS011;11158;53.404;-1.510;2022-12-07T01:34:39;4.35;;;1.55;;
21987;SDS011;11158;53.404;-1.510;2022-12-07T01:37:05;5.43;;;1.40;;
21987;SDS011;11158;53.404;-1.510;2022-12-07T01:39:30;4.20;;;1.20;;
21987;SDS011;11158;53.404;-1.510;2022-12-07T01:41:56;7.00;;;1.40;;
21987;SDS011;11158;53.404;-1.510;2022-12-07T01:49:37;4.53;;;1.50;;
21987;SDS011;11158;53.404;-1.510;2022-12-07T01:54:49;1.98;;;1.05;;
21987;SDS011;11158;53.404;-1.510;2022-12-07T01:57:21;5.25;;;1.30;;
21987;SDS011;11158;53.404;-1.510;2022-12-07T01:59:48;6.32;;;1.40;;
21987;SDS011;11158;53.404;-1.510;2022-12-07T02:02:25;2.65;;;1.30;;
21987;SDS011;11158;53.404;-1.510;2022-12-07T02:05:00;7.93;;;1.30;;
21987;SDS011;11158;53.404;-1.510;2022-12-07T02:07:29;6.35;;;1.33;;
21987;SDS011;11158;53.404;-1.510;2022-12-07T02:10:11;3.35;;;1.17;;
21987;SDS011;11158;53.404;-1.510;2022-12-07T02:12:38;7.00;;;1.15;;
21987;SDS011;11158;53.404;-1.510;2022-12-07T02:15:05;2.65;;;1.20;;
21987;SDS011;11158;53.404;-1.510;2022-12-07T02:17:40;6.53;;;1.25;;
21987;SDS011;11158;53.404;-1.510;2022-12-07T02:25:45;6.75;;;1.23;;
21987;SDS011;11158;53.404;-1.510;2022-12-07T02:31:36;5.35;;;1.42;;
21987;SDS011;11158;53.404;-1.510;2022-12-07T02:34:08;2.05;;;0.95;;
21987;SDS011;11158;53.404;-1.510;2022-12-07T02:36:42;3.40;;;1.00;;
21987;SDS011;11158;53.404;-1.510;2022-12-07T02:39:15;10.80;;;1.30;;
21987;SDS011;11158;53.404;-1.510;2022-12-07T02:41:53;2.20;;;1.13;;
21987;SDS011;11158;53.404;-1.510;2022-12-07T02:44:24;4.05;;;1.50;;
21987;SDS011;11158;53.404;-1.510;2022-12-07T02:47:03;3.35;;;1.20;;
21987;SDS011;11158;53.404;-1.510;2022-12-07T02:49:32;6.53;;;1.35;;
21987;SDS011;11158;53.404;-1.510;2022-12-07T02:51:58;5.05;;;1.10;;
21987;SDS011;11158;53.404;-1.510;2022-12-07T02:54:24;1.73;;;1.08;;
21987;SDS011;11158;53.404;-1.510;2022-12-07T02:56:52;3.83;;;1.00;;
21987;SDS011;11158;53.404;-1.510;2022-12-07T03:02:28;4.93;;;1.13;;
21987;SDS011;11158;53.404;-1.510;2022-12-07T03:10:42;4.38;;;1.63;;
21987;SDS011;11158;53.404;-1.510;2022-12-07T03:16:25;3.80;;;1.00;;
21987;SDS011;11158;53.404;-1.510;2022-12-07T03:18:56;6.07;;;1.90;;
21987;SDS011;11158;53.404;-1.510;2022-12-07T03:21:27;3.63;;;1.17;;
21987;SDS011;11158;53.404;-1.510;2022-12-07T03:24:00;1.75;;;0.90;;
21987;SDS011;11158;53.404;-1.510;2022-12-07T03:26:32;6.80;;;2.00;;
21987;SDS011;11158;53.404;-1.510;2022-12-07T03:29:02;6.13;;;1.35;;
21987;SDS011;11158;53.404;-1.510;2022-12-07T03:31:39;5.22;;;0.98;;
21987;SDS011;11158;53.404;-1.510;2022-12-07T03:34:27;3.38;;;1.13;;
21987;SDS011;11158;53.404;-1.510;2022-12-07T03:37:08;3.88;;;1.67;;
21987;SDS011;11158;53.404;-1.510;2022-12-07T03:42:31;4.30;;;1.13;;
21987;SDS011;11158;53.404;-1.510;2022-12-07T03:44:58;4.18;;;1.00;;
21987;SDS011;11158;53.404;-1.510;2022-12-07T03:47:27;2.25;;;0.90;;
21987;SDS011;11158;53.404;-1.510;2022-12-07T03:49:59;2.55;;;0.88;;
21987;SDS011;11158;53.404;-1.510;2022-12-07T03:52:42;2.42;;;0.90;;
21987;SDS011;11158;53.404;-1.510;2022-12-07T03:57:44;4.55;;;0.82;;
21987;SDS011;11158;53.404;-1.510;2022-12-07T04:00:14;3.65;;;0.90;;
21987;SDS011;11158;53.404;-1.510;2022-12-07T04:02:41;6.18;;;1.20;;
21987;SDS011;11158;53.404;-1.510;2022-12-07T04:05:08;3.65;;;1.25;;
21987;SDS011;11158;53.404;-1.510;2022-12-07T04:07:37;3.63;;;1.30;;
21987;SDS011;11158;53.404;-1.510;2022-12-07T04:10:03;2.22;;;0.93;;
21987;SDS011;11158;53.404;-1.510;2022-12-07T04:12:29;2.17;;;1.00;;
21987;SDS011;11158;53.404;-1.510;2022-12-07T04:14:55;4.25;;;1.05;;
21987;SDS011;11158;53.404;-1.510;2022-12-07T04:17:21;2.85;;;1.40;;
21987;SDS011;11158;53.404;-1.510;2022-12-07T04:19:47;3.70;;;0.90;;
21987;SDS011;11158;53.404;-1.510;2022-12-07T04:22:13;4.18;;;0.90;;
21987;SDS011;11158;53.404;-1.510;2022-12-07T04:24:39;2.38;;;1.00;;
21987;SDS011;11158;53.404;-1.510;2022-12-07T04:27:04;4.22;;;1.05;;
21987;SDS011;11158;53.404;-1.510;2022-12-07T04:29:30;3.05;;;1.00;;
21987;SDS011;11158;53.404;-1.510;2022-12-07T04:31:55;0.90;;;0.80;;
21987;SDS011;11158;53.404;-1.510;2022-12-07T04:34:21;6.90;;;1.38;;
21987;SDS011;11158;53.404;-1.510;2022-12-07T04:36:47;3.20;;;1.05;;
21987;SDS011;11158;53.404;-1.510;2022-12-07T04:39:24;1.70;;;0.90;;
21987;SDS011;11158;53.404;-1.510;2022-12-07T04:41:50;3.10;;;1.25;;
21987;SDS011;11158;53.404;-1.510;2022-12-07T04:44:16;3.65;;;1.15;;
21987;SDS011;11158;53.404;-1.510;2022-12-07T04:46:42;4.55;;;1.10;;
21987;SDS011;11158;53.404;-1.510;2022-12-07T04:49:09;4.43;;;2.05;;
21987;SDS011;11158;53.404;-1.510;2022-12-07T04:51:36;1.73;;;1.00;;
21987;SDS011;11158;53.404;-1.510;2022-12-07T04:54:02;9.85;;;1.23;;
21987;SDS011;11158;53.404;-1.510;2022-12-07T04:56:27;2.75;;;0.90;;
21987;SDS011;11158;53.404;-1.510;2022-12-07T04:58:53;4.90;;;1.20;;
21987;SDS011;11158;53.404;-1.510;2022-12-07T05:01:19;4.50;;;1.23;;
21987;SDS011;11158;53.404;-1.510;2022-12-07T05:03:47;4.97;;;1.10;;
21987;SDS011;11158;53.404;-1.510;2022-12-07T05:06:12;2.45;;;1.10;;
21987;SDS011;11158;53.404;-1.510;2022-12-07T05:08:39;2.92;;;1.25;;
21987;SDS011;11158;53.404;-1.510;2022-12-07T05:11:05;3.03;;;1.60;;
21987;SDS011;11158;53.404;-1.510;2022-12-07T05:13:32;2.85;;;0.90;;
21987;SDS011;11158;53.404;-1.510;2022-12-07T05:15:58;2.80;;;1.00;;
21987;SDS011;11158;53.404;-1.510;2022-12-07T05:18:24;5.68;;;1.20;;
21987;SDS011;11158;53.404;-1.510;2022-12-07T05:20:50;6.45;;;1.52;;
21987;SDS011;11158;53.404;-1.510;2022-12-07T05:23:16;5.07;;;1.48;;
21987;SDS011;11158;53.404;-1.510;2022-12-07T05:25:42;7.78;;;1.35;;
21987;SDS011;11158;53.404;-1.510;2022-12-07T05:28:08;3.35;;;1.10;;
21987;SDS011;11158;53.404;-1.510;2022-12-07T05:30:34;4.25;;;1.23;;
21987;SDS011;11158;53.404;-1.510;2022-12-07T05:33:00;6.53;;;1.58;;
21987;SDS011;11158;53.404;-1.510;2022-12-07T05:35:25;3.45;;;1.88;;
21987;SDS011;11158;53.404;-1.510;2022-12-07T05:37:51;3.38;;;1.50;;
21987;SDS011;11158;53.404;-1.510;2022-12-07T05:40:18;6.68;;;1.27;;
21987;SDS011;11158;53.404;-1.510;2022-12-07T05:42:44;4.53;;;1.17;;
21987;SDS011;11158;53.404;-1.510;2022-12-07T05:45:10;1.77;;;1.23;;
21987;SDS011;11158;53.404;-1.510;2022-12-07T05:47:36;4.55;;;1.30;;
21987;SDS011;11158;53.404;-1.510;2022-12-07T05:50:02;4.57;;;1.17;;
21987;SDS011;11158;53.404;-1.510;2022-12-07T05:52:29;1.90;;;1.10;;
21987;SDS011;11158;53.404;-1.510;2022-12-07T05:54:55;4.30;;;1.30;;
21987;SDS011;11158;53.404;-1.510;2022-12-07T05:57:21;3.13;;;1.17;;
21987;SDS011;11158;53.404;-1.510;2022-12-07T05:59:46;2.65;;;1.40;;
21987;SDS011;11158;53.404;-1.510;2022-12-07T06:02:13;5.85;;;1.60;;
21987;SDS011;11158;53.404;-1.510;2022-12-07T06:04:42;2.03;;;1.30;;
21987;SDS011;11158;53.404;-1.510;2022-12-07T06:07:09;2.65;;;1.52;;
21987;SDS011;11158;53.404;-1.510;2022-12-07T06:09:37;3.40;;;1.25;;
21987;SDS011;11158;53.404;-1.510;2022-12-07T06:12:03;4.63;;;1.52;;
21987;SDS011;11158;53.404;-1.510;2022-12-07T06:14:49;2.75;;;1.98;;
21987;SDS011;11158;53.404;-1.510;2022-12-07T06:17:15;2.80;;;1.50;;
21987;SDS011;11158;53.404;-1.510;2022-12-07T06:19:41;4.47;;;1.50;;
21987;SDS011;11158;53.404;-1.510;2022-12-07T06:22:07;4.15;;;1.45;;
21987;SDS011;11158;53.404;-1.510;2022-12-07T06:24:34;3.03;;;1.70;;
21987;SDS011;11158;53.404;-1.510;2022-12-07T06:27:00;4.25;;;1.45;;
21987;SDS011;11158;53.404;-1.510;2022-12-07T06:29:26;3.42;;;1.80;;
21987;SDS011;11158;53.404;-1.510;2022-12-07T06:31:52;3.88;;;1.65;;
21987;SDS011;11158;53.404;-1.510;2022-12-07T06:34:19;4.95;;;2.17;;
21987;SDS011;11158;53.404;-1.510;2022-12-07T06:36:48;11.15;;;1.98;;
21987;SDS011;11158;53.404;-1.510;2022-12-07T06:39:20;6.07;;;1.90;;
21987;SDS011;11158;53.404;-1.510;2022-12-07T06:41:47;3.40;;;1.37;;
21987;SDS011;11158;53.404;-1.510;2022-12-07T06:44:13;4.82;;;1.55;;
21987;SDS011;11158;53.404;-1.510;2022-12-07T06:46:39;7.15;;;1.90;;
21987;SDS011;11158;53.404;-1.510;2022-12-07T06:49:05;5.50;;;1.60;;
21987;SDS011;11158;53.404;-1.510;2022-12-07T06:51:31;3.83;;;1.52;;
21987;SDS011;11158;53.404;-1.510;2022-12-07T06:53:58;3.60;;;1.50;;
21987;SDS011;11158;53.404;-1.510;2022-12-07T06:56:23;4.80;;;1.70;;
21987;SDS011;11158;53.404;-1.510;2022-12-07T06:58:49;2.65;;;1.35;;
21987;SDS011;11158;53.404;-1.510;2022-12-07T07:01:16;2.55;;;1.38;;
21987;SDS011;11158;53.404;-1.510;2022-12-07T07:03:44;4.03;;;1.50;;
21987;SDS011;11158;53.404;-1.510;2022-12-07T07:06:12;2.75;;;1.20;;
21987;SDS011;11158;53.404;-1.510;2022-12-07T07:08:38;7.47;;;2.15;;
21987;SDS011;11158;53.404;-1.510;2022-12-07T07:11:05;5.75;;;1.52;;
21987;SDS011;11158;53.404;-1.510;2022-12-07T07:13:32;10.55;;;1.77;;
21987;SDS011;11158;53.404;-1.510;2022-12-07T07:15:58;6.22;;;1.52;;
21987;SDS011;11158;53.404;-1.510;2022-12-07T07:18:24;3.00;;;2.20;;
21987;SDS011;11158;53.404;-1.510;2022-12-07T07:20:50;5.50;;;1.60;;
21987;SDS011;11158;53.404;-1.510;2022-12-07T07:23:17;7.35;;;1.80;;
21987;SDS011;11158;53.404;-1.510;2022-12-07T07:25:44;3.55;;;1.85;;
21987;SDS011;11158;53.404;-1.510;2022-12-07T07:28:10;1.88;;;1.50;;
21987;SDS011;11158;53.404;-1.510;2022-12-07T07:30:35;4.97;;;1.52;;
21987;SDS011;11158;53.404;-1.510;2022-12-07T07:33:02;2.72;;;1.20;;
21987;SDS011;11158;53.404;-1.510;2022-12-07T07:35:31;5.93;;;1.75;;
21987;SDS011;11158;53.404;-1.510;2022-12-07T07:37:58;7.22;;;2.58;;
21987;SDS011;11158;53.404;-1.510;2022-12-07T07:40:24;4.22;;;2.00;;
21987;SDS011;11158;53.404;-1.510;2022-12-07T07:42:51;4.47;;;2.08;;
21987;SDS011;11158;53.404;-1.510;2022-12-07T07:45:18;5.53;;;2.30;;
21987;SDS011;11158;53.404;-1.510;2022-12-07T07:47:45;5.65;;;2.30;;
21987;SDS011;11158;53.404;-1.510;2022-12-07T07:50:11;6.38;;;2.63;;
21987;SDS011;11158;53.404;-1.510;2022-12-07T07:52:37;4.95;;;2.47;;
21987;SDS011;11158;53.404;-1.510;2022-12-07T07:55:02;3.75;;;2.00;;
21987;SDS011;11158;53.404;-1.510;2022-12-07T07:57:29;3.05;;;1.65;;
21987;SDS011;11158;53.404;-1.510;2022-12-07T07:59:54;5.72;;;2.00;;
21987;SDS011;11158;53.404;-1.510;2022-12-07T08:02:20;3.72;;;1.75;;
21987;SDS011;11158;53.404;-1.510;2022-12-07T08:04:47;6.32;;;1.73;;
21987;SDS011;11158;53.404;-1.510;2022-12-07T08:07:13;5.03;;;1.77;;
21987;SDS011;11158;53.404;-1.510;2022-12-07T08:09:40;3.50;;;2.20;;
21987;SDS011;11158;53.404;-1.510;2022-12-07T08:12:06;4.75;;;2.58;;
21987;SDS011;11158;53.404;-1.510;2022-12-07T08:14:33;4.97;;;2.85;;
21987;SDS011;11158;53.404;-1.510;2022-12-07T08:17:00;5.55;;;2.47;;
21987;SDS011;11158;53.404;-1.510;2022-12-07T08:19:26;6.05;;;2.80;;
21987;SDS011;11158;53.404;-1.510;2022-12-07T08:21:52;5.25;;;2.58;;
21987;SDS011;11158;53.404;-1.510;2022-12-07T08:24:18;5.78;;;2.67;;
21987;SDS011;11158;53.404;-1.510;2022-12-07T08:26:43;5.85;;;2.80;;
21987;SDS011;11158;53.404;-1.510;2022-12-07T08:29:10;6.18;;;2.72;;
21987;SDS011;11158;53.404;-1.510;2022-12-07T08:31:36;3.20;;;2.13;;
21987;SDS011;11158;53.404;-1.510;2022-12-07T08:34:01;5.38;;;3.22;;
21987;SDS011;11158;53.404;-1.510;2022-12-07T08:36:28;7.05;;;3.53;;
21987;SDS011;11158;53.404;-1.510;2022-12-07T08:38:54;6.18;;;2.67;;
21987;SDS011;11158;53.404;-1.510;2022-12-07T08:41:21;4.97;;;2.38;;
21987;SDS011;11158;53.404;-1.510;2022-12-07T08:43:46;6.38;;;3.42;;
21987;SDS011;11158;53.404;-1.510;2022-12-07T08:46:25;5.13;;;2.50;;
21987;SDS011;11158;53.404;-1.510;2022-12-07T08:49:02;3.08;;;1.50;;
21987;SDS011;11158;53.404;-1.510;2022-12-07T08:51:31;4.68;;;1.70;;
21987;SDS011;11158;53.404;-1.510;2022-12-07T08:53:58;4.82;;;1.77;;
21987;SDS011;11158;53.404;-1.510;2022-12-07T08:56:26;1.73;;;1.33;;
21987;SDS011;11158;53.404;-1.510;2022-12-07T08:58:52;5.15;;;2.33;;
21987;SDS011;11158;53.404;-1.510;2022-12-07T09:01:18;6.35;;;2.05;;
21987;SDS011;11158;53.404;-1.510;2022-12-07T09:03:44;3.33;;;1.58;;
21987;SDS011;11158;53.404;-1.510;2022-12-07T09:06:10;3.90;;;1.92;;
21987;SDS011;11158;53.404;-1.510;2022-12-07T09:08:40;7.13;;;2.20;;
21987;SDS011;11158;53.404;-1.510;2022-12-07T09:11:10;3.78;;;2.05;;
21987;SDS011;11158;53.404;-1.510;2022-12-07T09:13:36;8.30;;;2.17;;
21987;SDS011;11158;53.404;-1.510;2022-12-07T09:16:02;4.05;;;2.00;;
21987;SDS011;11158;53.404;-1.510;2022-12-07T09:18:29;1.75;;;1.55;;
21987;SDS011;11158;53.404;-1.510;2022-12-07T09:20:55;3.85;;;1.45;;
21987;SDS011;11158;53.404;-1.510;2022-12-07T09:23:21;4.93;;;1.58;;
21987;SDS011;11158;53.404;-1.510;2022-12-07T09:25:48;6.68;;;1.88;;
21987;SDS011;11158;53.404;-1.510;2022-12-07T09:28:14;7.22;;;1.95;;
21987;SDS011;11158;53.404;-1.510;2022-12-07T09:30:45;3.88;;;1.70;;
21987;SDS011;11158;53.404;-1.510;2022-12-07T09:33:14;2.92;;;1.50;;
21987;SDS011;11158;53.404;-1.510;2022-12-07T09:35:50;4.22;;;1.52;;
21987;SDS011;11158;53.404;-1.510;2022-12-07T09:38:17;2.55;;;1.33;;
21987;SDS011;11158;53.404;-1.510;2022-12-07T09:40:44;2.55;;;1.17;;
21987;SDS011;11158;53.404;-1.510;2022-12-07T09:45:42;3.92;;;1.40;;
21987;SDS011;11158;53.404;-1.510;2022-12-07T09:48:14;10.43;;;2.70;;
21987;SDS011;11158;53.404;-1.510;2022-12-07T09:50:47;4.68;;;1.83;;
21987;SDS011;11158;53.404;-1.510;2022-12-07T09:53:15;5.90;;;1.65;;
21987;SDS011;11158;53.404;-1.510;2022-12-07T09:55:50;5.32;;;2.65;;
21987;SDS011;11158;53.404;-1.510;2022-12-07T09:58:19;5.97;;;2.70;;
21987;SDS011;11158;53.404;-1.510;2022-12-07T10:00:47;5.00;;;3.20;;
21987;SDS011;11158;53.404;-1.510;2022-12-07T10:03:14;5.13;;;1.77;;
21987;SDS011;11158;53.404;-1.510;2022-12-07T10:05:41;3.65;;;1.52;;
21987;SDS011;11158;53.404;-1.510;2022-12-07T10:08:11;3.38;;;1.05;;
21987;SDS011;11158;53.404;-1.510;2022-12-07T10:10:38;4.20;;;1.10;;
21987;SDS011;11158;53.404;-1.510;2022-12-07T10:21:39;4.97;;;1.10;;
21987;SDS011;11158;53.404;-1.510;2022-12-07T10:24:03;2.97;;;1.20;;
21987;SDS011;11158;53.404;-1.510;2022-12-07T10:29:17;1.88;;;1.20;;
21987;SDS011;11158;53.404;-1.510;2022-12-07T10:31:49;3.88;;;1.65;;
21987;SDS011;11158;53.404;-1.510;2022-12-07T10:34:27;3.67;;;1.40;;
21987;SDS011;11158;53.404;-1.510;2022-12-07T10:37:18;3.13;;;0.90;;
21987;SDS011;11158;53.404;-1.510;2022-12-07T10:39:46;4.30;;;1.23;;
21987;SDS011;11158;53.404;-1.510;2022-12-07T10:42:26;2.00;;;1.00;;
21987;SDS011;11158;53.404;-1.510;2022-12-07T11:01:26;2.95;;;1.40;;
21987;SDS011;11158;53.404;-1.510;2022-12-07T11:15:04;2.70;;;0.93;;
21987;SDS011;11158;53.404;-1.510;2022-12-07T11:23:12;5.18;;;1.10;;
21987;SDS011;11158;53.404;-1.510;2022-12-07T11:42:13;4.93;;;2.10;;
21987;SDS011;11158;53.404;-1.510;2022-12-07T11:47:38;3.50;;;0.82;;
21987;SDS011;11158;53.404;-1.510;2022-12-07T11:50:26;5.18;;;1.20;;
21987;SDS011;11158;53.404;-1.510;2022-12-07T12:03:40;2.30;;;1.13;;
21987;SDS011;11158;53.404;-1.510;2022-12-07T12:06:13;5.53;;;1.42;;
21987;SDS011;11158;53.404;-1.510;2022-12-07T12:08:41;3.58;;;1.02;;
21987;SDS011;11158;53.404;-1.510;2022-12-07T12:19:26;5.07;;;1.85;;
21987;SDS011;11158;53.404;-1.510;2022-12-07T12:21:55;4.28;;;1.15;;
21987;SDS011;11158;53.404;-1.510;2022-12-07T12:24:26;1.75;;;0.80;;
21987;SDS011;11158;53.404;-1.510;2022-12-07T12:27:02;4.78;;;1.27;;
21987;SDS011;11158;53.404;-1.510;2022-12-07T12:29:33;5.22;;;1.38;;
21987;SDS011;11158;53.404;-1.510;2022-12-07T12:32:06;3.60;;;1.38;;
21987;SDS011;11158;53.404;-1.510;2022-12-07T12:34:39;4.22;;;1.10;;
21987;SDS011;11158;53.404;-1.510;2022-12-07T12:47:43;4.05;;;1.13;;
21987;SDS011;11158;53.404;-1.510;2022-12-07T12:50:22;2.25;;;1.00;;
21987;SDS011;11158;53.404;-1.510;2022-12-07T12:52:54;4.57;;;0.93;;
21987;SDS011;11158;53.404;-1.510;2022-12-07T13:00:43;4.80;;;0.82;;
21987;SDS011;11158;53.404;-1.510;2022-12-07T13:03:23;4.80;;;0.95;;
21987;SDS011;11158;53.404;-1.510;2022-12-07T13:09:00;3.80;;;1.25;;
21987;SDS011;11158;53.404;-1.510;2022-12-07T13:13:52;2.47;;;1.10;;
21987;SDS011;11158;53.404;-1.510;2022-12-07T13:16:57;2.42;;;0.98;;
21987;SDS011;11158;53.404;-1.510;2022-12-07T13:27:51;1.38;;;1.00;;
21987;SDS011;11158;53.404;-1.510;2022-12-07T13:30:22;2.85;;;1.17;;
21987;SDS011;11158;53.404;-1.510;2022-12-07T13:32:58;3.65;;;1.48;;
21987;SDS011;11158;53.404;-1.510;2022-12-07T13:35:32;3.22;;;1.42;;
21987;SDS011;11158;53.404;-1.510;2022-12-07T13:38:02;2.60;;;1.30;;
21987;SDS011;11158;53.404;-1.510;2022-12-07T13:40:32;5.10;;;1.40;;
21987;SDS011;11158;53.404;-1.510;2022-12-07T13:42:59;3.45;;;1.00;;
21987;SDS011;11158;53.404;-1.510;2022-12-07T13:51:00;4.60;;;1.30;;
21987;SDS011;11158;53.404;-1.510;2022-12-07T13:53:27;2.75;;;1.33;;
21987;SDS011;11158;53.404;-1.510;2022-12-07T13:55:59;3.53;;;1.55;;
21987;SDS011;11158;53.404;-1.510;2022-12-07T13:58:30;6.82;;;1.85;;
21987;SDS011;11158;53.404;-1.510;2022-12-07T14:00:58;3.15;;;1.33;;
21987;SDS011;11158;53.404;-1.510;2022-12-07T14:03:29;3.90;;;1.40;;
21987;SDS011;11158;53.404;-1.510;2022-12-07T14:06:03;2.97;;;1.20;;
21987;SDS011;11158;53.404;-1.510;2022-12-07T14:08:31;3.58;;;1.38;;
21987;SDS011;11158;53.404;-1.510;2022-12-07T14:10:57;5.68;;;1.85;;
21987;SDS011;11158;53.404;-1.510;2022-12-07T14:13:31;2.90;;;1.63;;
21987;SDS011;11158;53.404;-1.510;2022-12-07T14:16:01;2.63;;;1.60;;
21987;SDS011;11158;53.404;-1.510;2022-12-07T14:21:04;6.50;;;2.13;;
21987;SDS011;11158;53.404;-1.510;2022-12-07T14:23:31;2.80;;;1.67;;
21987;SDS011;11158;53.404;-1.510;2022-12-07T14:26:16;5.40;;;2.17;;
21987;SDS011;11158;53.404;-1.510;2022-12-07T14:28:45;2.25;;;1.95;;
21987;SDS011;11158;53.404;-1.510;2022-12-07T14:31:16;7.63;;;2.20;;
21987;SDS011;11158;53.404;-1.510;2022-12-07T14:33:43;4.65;;;2.28;;
21987;SDS011;11158;53.404;-1.510;2022-12-07T14:36:09;8.23;;;3.03;;
21987;SDS011;11158;53.404;-1.510;2022-12-07T14:38:39;3.70;;;2.22;;
21987;SDS011;11158;53.404;-1.510;2022-12-07T14:41:14;7.53;;;2.78;;
21987;SDS011;11158;53.404;-1.510;2022-12-07T14:44:16;4.78;;;2.60;;
21987;SDS011;11158;53.404;-1.510;2022-12-07T14:46:42;4.70;;;2.60;;
21987;SDS011;11158;53.404;-1.510;2022-12-07T14:49:09;6.40;;;2.85;;
21987;SDS011;11158;53.404;-1.510;2022-12-07T14:51:36;5.60;;;3.20;;
21987;SDS011;11158;53.404;-1.510;2022-12-07T14:54:04;4.22;;;3.03;;
21987;SDS011;11158;53.404;-1.510;2022-12-07T14:56:32;5.30;;;2.80;;
21987;SDS011;11158;53.404;-1.510;2022-12-07T14:58:57;4.10;;;3.00;;
21987;SDS011;11158;53.404;-1.510;2022-12-07T15:01:23;9.23;;;3.20;;
21987;SDS011;11158;53.404;-1.510;2022-12-07T15:03:49;7.15;;;3.42;;
21987;SDS011;11158;53.404;-1.510;2022-12-07T15:06:16;6.55;;;2.85;;
21987;SDS011;11158;53.404;-1.510;2022-12-07T15:08:42;3.97;;;2.60;;
21987;SDS011;11158;53.404;-1.510;2022-12-07T15:11:11;3.85;;;2.17;;
21987;SDS011;11158;53.404;-1.510;2022-12-07T15:13:38;4.95;;;2.55;;
21987;SDS011;11158;53.404;-1.510;2022-12-07T15:16:22;4.00;;;2.40;;
21987;SDS011;11158;53.404;-1.510;2022-12-07T15:18:48;3.47;;;2.20;;
21987;SDS011;11158;53.404;-1.510;2022-12-07T15:21:14;5.18;;;2.40;;
21987;SDS011;11158;53.404;-1.510;2022-12-07T15:23:40;4.95;;;2.20;;
21987;SDS011;11158;53.404;-1.510;2022-12-07T15:26:06;5.70;;;2.33;;
21987;SDS011;11158;53.404;-1.510;2022-12-07T15:28:34;3.58;;;1.80;;
21987;SDS011;11158;53.404;-1.510;2022-12-07T15:30:59;4.03;;;1.90;;
21987;SDS011;11158;53.404;-1.510;2022-12-07T15:33:25;4.03;;;2.38;;
21987;SDS011;11158;53.404;-1.510;2022-12-07T15:35:52;7.50;;;2.30;;
21987;SDS011;11158;53.404;-1.510;2022-12-07T15:38:18;6.90;;;2.78;;
21987;SDS011;11158;53.404;-1.510;2022-12-07T15:40:46;5.05;;;2.65;;
21987;SDS011;11158;53.404;-1.510;2022-12-07T15:43:12;4.10;;;2.58;;
21987;SDS011;11158;53.404;-1.510;2022-12-07T15:45:56;6.43;;;3.05;;
21987;SDS011;11158;53.404;-1.510;2022-12-07T15:48:22;5.43;;;2.60;;
21987;SDS011;11158;53.404;-1.510;2022-12-07T15:50:49;7.72;;;2.80;;
21987;SDS011;11158;53.404;-1.510;2022-12-07T15:53:15;6.45;;;3.45;;
21987;SDS011;11158;53.404;-1.510;2022-12-07T15:55:40;10.40;;;3.40;;
21987;SDS011;11158;53.404;-1.510;2022-12-07T15:58:06;5.63;;;2.88;;
21987;SDS011;11158;53.404;-1.510;2022-12-07T16:00:32;7.07;;;2.78;;
21987;SDS011;11158;53.404;-1.510;2022-12-07T16:02:58;5.10;;;2.60;;
21987;SDS011;11158;53.404;-1.510;2022-12-07T16:05:24;3.33;;;2.28;;
21987;SDS011;11158;53.404;-1.510;2022-12-07T16:07:49;6.57;;;2.53;;
21987;SDS011;11158;53.404;-1.510;2022-12-07T16:10:15;4.57;;;2.50;;
21987;SDS011;11158;53.404;-1.510;2022-12-07T16:12:41;5.25;;;2.35;;
21987;SDS011;11158;53.404;-1.510;2022-12-07T16:15:06;3.47;;;2.65;;
21987;SDS011;11158;53.404;-1.510;2022-12-07T16:17:32;6.63;;;2.90;;
21987;SDS011;11158;53.404;-1.510;2022-12-07T16:19:58;6.95;;;3.15;;
21987;SDS011;11158;53.404;-1.510;2022-12-07T16:22:24;6.45;;;3.00;;
21987;SDS011;11158;53.404;-1.510;2022-12-07T16:24:49;6.15;;;3.17;;
21987;SDS011;11158;53.404;-1.510;2022-12-07T16:27:15;7.55;;;2.47;;
21987;SDS011;11158;53.404;-1.510;2022-12-07T16:29:41;3.92;;;2.00;;
21987;SDS011;11158;53.404;-1.510;2022-12-07T16:32:08;3.53;;;2.15;;
21987;SDS011;11158;53.404;-1.510;2022-12-07T16:34:33;3.92;;;1.98;;
21987;SDS011;11158;53.404;-1.510;2022-12-07T16:36:59;3.33;;;1.85;;
21987;SDS011;11158;53.404;-1.510;2022-12-07T16:39:25;6.35;;;2.28;;
21987;SDS011;11158;53.404;-1.510;2022-12-07T16:41:50;5.22;;;1.90;;
21987;SDS011;11158;53.404;-1.510;2022-12-07T16:44:17;8.35;;;2.13;;
21987;SDS011;11158;53.404;-1.510;2022-12-07T16:46:43;5.05;;;1.77;;
21987;SDS011;11158;53.404;-1.510;2022-12-07T16:49:13;4.32;;;1.92;;
21987;SDS011;11158;53.404;-1.510;2022-12-07T16:51:40;2.78;;;1.90;;
21987;SDS011;11158;53.404;-1.510;2022-12-07T16:54:09;3.72;;;1.83;;
21987;SDS011;11158;53.404;-1.510;2022-12-07T16:56:36;4.82;;;2.20;;
21987;SDS011;11158;53.404;-1.510;2022-12-07T16:59:02;3.92;;;2.25;;
21987;SDS011;11158;53.404;-1.510;2022-12-07T17:01:29;5.72;;;2.17;;
21987;SDS011;11158;53.404;-1.510;2022-12-07T17:03:56;4.20;;;2.53;;
21987;SDS011;11158;53.404;-1.510;2022-12-07T17:06:24;6.15;;;2.85;;
21987;SDS011;11158;53.404;-1.510;2022-12-07T17:08:51;4.97;;;3.10;;
21987;SDS011;11158;53.404;-1.510;2022-12-07T17:13:47;5.60;;;3.20;;
21987;SDS011;11158;53.404;-1.510;2022-12-07T17:16:32;10.75;;;3.53;;
21987;SDS011;11158;53.404;-1.510;2022-12-07T17:18:58;6.32;;;2.55;;
21987;SDS011;11158;53.404;-1.510;2022-12-07T17:21:24;6.57;;;1.90;;
21987;SDS011;11158;53.404;-1.510;2022-12-07T17:23:50;5.70;;;1.65;;